sensor_id;sensor_type;location;lat;lon;timestamp;pressure;altitude;pressure_sealevel;temperature;humidity
11830;BME280;5972;42.134;24.718;2022-08-06T00:00:05;99275.09;;;26.66;73.21
11830;BME280;5972;42.134;24.718;2022-08-06T00:02:32;99275.69;;;26.61;73.49
11830;BME280;5972;42.134;24.718;2022-08-06T00:05:01;99261.16;;;26.48;74.47
11830;BME280;5972;42.134;24.718;2022-08-06T00:07:30;99274.16;;;26.60;74.99
11830;BME280;5972;42.134;24.718;2022-08-06T00:09:57;99283.69;;;26.59;74.89
11830;BME280;5972;42.134;24.718;2022-08-06T00:12:23;99278.44;;;26.52;74.86
11830;BME280;5972;42.134;24.718;2022-08-06T00:14:50;99280.91;;;26.50;75.36
11830;BME280;5972;42.134;24.718;2022-08-06T00:17:17;99270.41;;;26.45;75.32
11830;BME280;5972;42.134;24.718;2022-08-06T00:19:45;99276.56;;;26.40;76.99
11830;BME280;5972;42.134;24.718;2022-08-06T00:22:12;99263.72;;;26.33;75.54
11830;BME280;5972;42.134;24.718;2022-08-06T00:24:40;99279.75;;;26.29;75.85
11830;BME280;5972;42.134;24.718;2022-08-06T00:27:07;99273.56;;;26.25;77.33
11830;BME280;5972;42.134;24.718;2022-08-06T00:29:34;99269.31;;;26.12;76.46
11830;BME280;5972;42.134;24.718;2022-08-06T00:32:01;99276.53;;;26.09;75.31
11830;BME280;5972;42.134;24.718;2022-08-06T00:34:28;99277.41;;;25.97;75.48
11830;BME280;5972;42.134;24.718;2022-08-06T00:36:55;99272.63;;;25.97;74.01
11830;BME280;5972;42.134;24.718;2022-08-06T00:39:21;99284.09;;;25.87;74.87
11830;BME280;5972;42.134;24.718;2022-08-06T00:41:49;99278.84;;;25.80;76.27
11830;BME280;5972;42.134;24.718;2022-08-06T00:44:16;99278.31;;;25.72;77.15
11830;BME280;5972;42.134;24.718;2022-08-06T00:46:43;99284.31;;;25.71;78.26
11830;BME280;5972;42.134;24.718;2022-08-06T00:49:12;99285.63;;;25.44;79.80
11830;BME280;5972;42.134;24.718;2022-08-06T00:51:39;99280.53;;;25.43;79.54
11830;BME280;5972;42.134;24.718;2022-08-06T00:54:06;99264.25;;;25.23;78.88
11830;BME280;5972;42.134;24.718;2022-08-06T00:56:33;99278.41;;;25.25;79.73
11830;BME280;5972;42.134;24.718;2022-08-06T00:59:01;99266.47;;;25.15;82.10
11830;BME280;5972;42.134;24.718;2022-08-06T01:01:50;99279.91;;;25.39;79.90
11830;BME280;5972;42.134;24.718;2022-08-06T01:04:17;99280.16;;;25.32;80.20
11830;BME280;5972;42.134;24.718;2022-08-06T01:06:44;99288.34;;;25.35;79.43
11830;BME280;5972;42.134;24.718;2022-08-06T01:09:11;99289.44;;;25.38;79.67
11830;BME280;5972;42.134;24.718;2022-08-06T01:11:38;99283.81;;;25.29;80.21
11830;BME280;5972;42.134;24.718;2022-08-06T01:14:07;99285.09;;;25.15;81.51
11830;BME280;5972;42.134;24.718;2022-08-06T01:16:38;99279.09;;;25.16;81.88
11830;BME280;5972;42.134;24.718;2022-08-06T01:19:18;99279.91;;;25.04;83.02
11830;BME280;5972;42.134;24.718;2022-08-06T01:21:56;99279.03;;;25.07;83.78
11830;BME280;5972;42.134;24.718;2022-08-06T01:24:59;99283.22;;;25.12;83.52
11830;BME280;5972;42.134;24.718;2022-08-06T01:27:42;99277.16;;;25.04;84.18
11830;BME280;5972;42.134;24.718;2022-08-06T01:30:14;99275.59;;;25.03;84.99
11830;BME280;5972;42.134;24.718;2022-08-06T01:32:46;99282.47;;;24.99;85.38
11830;BME280;5972;42.134;24.718;2022-08-06T01:35:17;99278.94;;;24.98;86.30
11830;BME280;5972;42.134;24.718;2022-08-06T01:37:50;99274.94;;;24.86;87.25
11830;BME280;5972;42.134;24.718;2022-08-06T01:40:22;99272.09;;;24.90;88.63
11830;BME280;5972;42.134;24.718;2022-08-06T01:42:53;99274.59;;;24.97;89.40
11830;BME280;5972;42.134;24.718;2022-08-06T01:45:23;99270.41;;;24.93;90.78
11830;BME280;5972;42.134;24.718;2022-08-06T01:47:54;99273.19;;;24.93;91.86
11830;BME280;5972;42.134;24.718;2022-08-06T01:50:27;99267.97;;;24.82;92.76
11830;BME280;5972;42.134;24.718;2022-08-06T01:52:55;99280.47;;;24.86;94.02
11830;BME280;5972;42.134;24.718;2022-08-06T01:55:25;99266.69;;;24.74;95.70
11830;BME280;5972;42.134;24.718;2022-08-06T01:57:57;99266.56;;;24.65;96.77
11830;BME280;5972;42.134;24.718;2022-08-06T02:00:26;99278.84;;;24.64;99.35
11830;BME280;5972;42.134;24.718;2022-08-06T02:02:56;99267.25;;;24.56;100.00
11830;BME280;5972;42.134;24.718;2022-08-06T02:05:25;99275.78;;;24.62;100.00
11830;BME280;5972;42.134;24.718;2022-08-06T02:07:54;99275.78;;;24.62;100.00
11830;BME280;5972;42.134;24.718;2022-08-06T02:10:22;99274.66;;;24.59;100.00
11830;BME280;5972;42.134;24.718;2022-08-06T02:12:50;99269.91;;;24.60;100.00
11830;BME280;5972;42.134;24.718;2022-08-06T02:15:24;99267.25;;;24.56;100.00
11830;BME280;5972;42.134;24.718;2022-08-06T02:17:54;99271.53;;;24.70;100.00
11830;BME280;5972;42.134;24.718;2022-08-06T02:20:26;99274.09;;;24.64;100.00
11830;BME280;5972;42.134;24.718;2022-08-06T02:22:55;99268.69;;;24.61;100.00
11830;BME280;5972;42.134;24.718;2022-08-06T02:25:23;99271.88;;;24.59;100.00
11830;BME280;5972;42.134;24.718;2022-08-06T02:27:53;99271.66;;;24.54;100.00
11830;BME280;5972;42.134;24.718;2022-08-06T02:30:23;99272.56;;;24.51;100.00
11830;BME280;5972;42.134;24.718;2022-08-06T02:32:51;99264.06;;;24.32;100.00
11830;BME280;5972;42.134;24.718;2022-08-06T02:35:18;99263.06;;;24.39;100.00
11830;BME280;5972;42.134;24.718;2022-08-06T02:37:50;99250.56;;;24.34;100.00
11830;BME280;5972;42.134;24.718;2022-08-06T02:40:23;99263.84;;;24.39;100.00
11830;BME280;5972;42.134;24.718;2022-08-06T02:42:56;99252.88;;;24.23;100.00
11830;BME280;5972;42.134;24.718;2022-08-06T02:45:30;99251.78;;;24.21;100.00
11830;BME280;5972;42.134;24.718;2022-08-06T02:48:07;99258.09;;;24.34;100.00
11830;BME280;5972;42.134;24.718;2022-08-06T02:50:41;99268.25;;;24.37;100.00
11830;BME280;5972;42.134;24.718;2022-08-06T02:53:10;99256.66;;;24.29;100.00
11830;BME280;5972;42.134;24.718;2022-08-06T02:55:43;99275.88;;;24.33;100.00
11830;BME280;5972;42.134;24.718;2022-08-06T02:58:15;99253.84;;;24.17;100.00
11830;BME280;5972;42.134;24.718;2022-08-06T03:00:48;99262.28;;;24.26;100.00
11830;BME280;5972;42.134;24.718;2022-08-06T03:03:19;99259.72;;;24.19;100.00
11830;BME280;5972;42.134;24.718;2022-08-06T03:05:47;99263.88;;;23.98;100.00
11830;BME280;5972;42.134;24.718;2022-08-06T03:08:23;99273.41;;;24.10;100.00
11830;BME280;5972;42.134;24.718;2022-08-06T03:10:53;99247.53;;;24.03;100.00
11830;BME280;5972;42.134;24.718;2022-08-06T03:13:22;99254.81;;;23.97;100.00
11830;BME280;5972;42.134;24.718;2022-08-06T03:15:52;99273.84;;;24.08;100.00
11830;BME280;5972;42.134;24.718;2022-08-06T03:18:20;99266.88;;;24.03;100.00
11830;BME280;5972;42.134;24.718;2022-08-06T03:20:49;99259.91;;;23.99;100.00
11830;BME280;5972;42.134;24.718;2022-08-06T03:23:17;99270.06;;;24.02;100.00
11830;BME280;5972;42.134;24.718;2022-08-06T03:25:46;99275.59;;;24.02;100.00
11830;BME280;5972;42.134;24.718;2022-08-06T03:28:14;99279.16;;;24.02;100.00
11830;BME280;5972;42.134;24.718;2022-08-06T03:30:41;99273.28;;;24.00;100.00
11830;BME280;5972;42.134;24.718;2022-08-06T03:33:13;99276.69;;;23.92;100.00
11830;BME280;5972;42.134;24.718;2022-08-06T03:35:41;99284.34;;;24.00;100.00
11830;BME280;5972;42.134;24.718;2022-08-06T03:38:10;99277.47;;;23.92;100.00
11830;BME280;5972;42.134;24.718;2022-08-06T03:40:39;99276.63;;;23.95;100.00
11830;BME280;5972;42.134;24.718;2022-08-06T03:43:08;99282.13;;;23.95;100.00
11830;BME280;5972;42.134;24.718;2022-08-06T03:45:38;99284.91;;;24.08;100.00
11830;BME280;5972;42.134;24.718;2022-08-06T03:48:06;99273.53;;;24.06;100.00
11830;BME280;5972;42.134;24.718;2022-08-06T03:50:40;99278.28;;;24.06;100.00
11830;BME280;5972;42.134;24.718;2022-08-06T03:53:20;99288.59;;;24.30;100.00
11830;BME280;5972;42.134;24.718;2022-08-06T03:55:47;99280.53;;;24.49;99.57
11830;BME280;5972;42.134;24.718;2022-08-06T03:58:17;99269.69;;;24.54;98.07
11830;BME280;5972;42.134;24.718;2022-08-06T04:00:49;99277.06;;;24.70;97.02
11830;BME280;5972;42.134;24.718;2022-08-06T04:03:17;99273.50;;;24.82;94.49
11830;BME280;5972;42.134;24.718;2022-08-06T04:05:46;99278.34;;;25.03;92.21
11830;BME280;5972;42.134;24.718;2022-08-06T04:08:14;99253.00;;;25.05;89.96
11830;BME280;5972;42.134;24.718;2022-08-06T04:10:43;99281.47;;;25.40;87.63
11830;BME280;5972;42.134;24.718;2022-08-06T04:13:13;99260.19;;;25.37;86.54
11830;BME280;5972;42.134;24.718;2022-08-06T04:15:41;99279.31;;;25.56;84.87
11830;BME280;5972;42.134;24.718;2022-08-06T04:18:09;99287.59;;;25.78;82.95
11830;BME280;5972;42.134;24.718;2022-08-06T04:20:39;99286.56;;;25.85;81.75
11830;BME280;5972;42.134;24.718;2022-08-06T04:23:08;99289.00;;;26.04;80.00
11830;BME280;5972;42.134;24.718;2022-08-06T04:25:38;99288.91;;;26.17;78.65
11830;BME280;5972;42.134;24.718;2022-08-06T04:28:06;99288.13;;;26.47;76.76
11830;BME280;5972;42.134;24.718;2022-08-06T04:30:35;99295.91;;;26.62;75.02
11830;BME280;5972;42.134;24.718;2022-08-06T04:33:04;99284.13;;;26.88;73.91
11830;BME280;5972;42.134;24.718;2022-08-06T04:35:31;99280.47;;;27.19;71.59
11830;BME280;5972;42.134;24.718;2022-08-06T04:37:59;99287.25;;;27.36;69.33
11830;BME280;5972;42.134;24.718;2022-08-06T04:40:28;99279.09;;;27.51;69.20
11830;BME280;5972;42.134;24.718;2022-08-06T04:42:56;99274.88;;;27.37;67.96
11830;BME280;5972;42.134;24.718;2022-08-06T04:45:24;99287.69;;;27.25;70.17
11830;BME280;5972;42.134;24.718;2022-08-06T04:47:51;99283.03;;;26.86;73.63
11830;BME280;5972;42.134;24.718;2022-08-06T04:50:19;99285.47;;;26.75;74.16
11830;BME280;5972;42.134;24.718;2022-08-06T04:52:46;99297.31;;;26.75;74.81
11830;BME280;5972;42.134;24.718;2022-08-06T04:55:13;99284.03;;;26.61;76.50
11830;BME280;5972;42.134;24.718;2022-08-06T04:57:41;99297.69;;;26.46;78.72
11830;BME280;5972;42.134;24.718;2022-08-06T05:00:09;99297.19;;;26.39;79.40
11830;BME280;5972;42.134;24.718;2022-08-06T05:02:36;99303.69;;;26.36;79.16
11830;BME280;5972;42.134;24.718;2022-08-06T05:05:04;99302.94;;;26.44;80.34
11830;BME280;5972;42.134;24.718;2022-08-06T05:07:34;99308.03;;;26.95;77.70
11830;BME280;5972;42.134;24.718;2022-08-06T05:10:03;99299.44;;;27.39;71.26
11830;BME280;5972;42.134;24.718;2022-08-06T05:12:33;99305.13;;;27.90;68.90
11830;BME280;5972;42.134;24.718;2022-08-06T05:15:11;99310.25;;;28.42;64.57
11830;BME280;5972;42.134;24.718;2022-08-06T05:17:44;99312.50;;;28.95;60.46
11830;BME280;5972;42.134;24.718;2022-08-06T05:20:17;99309.53;;;29.22;59.00
11830;BME280;5972;42.134;24.718;2022-08-06T05:22:52;99316.84;;;29.20;58.33
11830;BME280;5972;42.134;24.718;2022-08-06T05:25:20;99296.91;;;29.12;58.27
11830;BME280;5972;42.134;24.718;2022-08-06T05:27:50;99277.94;;;29.25;58.12
11830;BME280;5972;42.134;24.718;2022-08-06T05:30:19;99308.78;;;29.60;57.25
11830;BME280;5972;42.134;24.718;2022-08-06T05:32:47;99302.44;;;30.33;53.07
11830;BME280;5972;42.134;24.718;2022-08-06T05:35:14;99300.56;;;30.94;50.36
11830;BME280;5972;42.134;24.718;2022-08-06T05:37:41;99303.75;;;31.63;46.56
11830;BME280;5972;42.134;24.718;2022-08-06T05:40:09;99304.56;;;32.21;44.87
11830;BME280;5972;42.134;24.718;2022-08-06T05:42:35;99313.56;;;33.10;41.73
11830;BME280;5972;42.134;24.718;2022-08-06T05:45:03;99299.53;;;33.80;39.81
11830;BME280;5972;42.134;24.718;2022-08-06T05:47:34;99311.09;;;34.38;37.35
11830;BME280;5972;42.134;24.718;2022-08-06T05:50:06;99307.47;;;34.76;36.59
11830;BME280;5972;42.134;24.718;2022-08-06T05:52:37;99299.91;;;35.18;35.54
11830;BME280;5972;42.134;24.718;2022-08-06T05:55:11;99296.44;;;36.53;33.30
11830;BME280;5972;42.134;24.718;2022-08-06T05:57:43;99301.72;;;37.73;30.88
11830;BME280;5972;42.134;24.718;2022-08-06T06:00:15;99311.72;;;39.09;29.45
11830;BME280;5972;42.134;24.718;2022-08-06T06:02:47;99308.53;;;39.73;28.03
11830;BME280;5972;42.134;24.718;2022-08-06T06:05:15;99313.47;;;40.76;26.77
11830;BME280;5972;42.134;24.718;2022-08-06T06:07:42;99305.06;;;41.27;26.17
11830;BME280;5972;42.134;24.718;2022-08-06T06:10:09;99320.72;;;41.64;25.72
11830;BME280;5972;42.134;24.718;2022-08-06T06:12:39;99314.78;;;41.47;25.60
11830;BME280;5972;42.134;24.718;2022-08-06T06:15:09;99294.28;;;42.15;24.41
11830;BME280;5972;42.134;24.718;2022-08-06T06:17:51;99314.78;;;42.59;24.35
11830;BME280;5972;42.134;24.718;2022-08-06T06:20:34;99302.09;;;42.37;24.67
11830;BME280;5972;42.134;24.718;2022-08-06T06:23:09;99310.63;;;42.45;24.62
11830;BME280;5972;42.134;24.718;2022-08-06T06:25:44;99306.22;;;40.96;26.21
11830;BME280;5972;42.134;24.718;2022-08-06T06:28:18;99311.06;;;39.63;27.63
11830;BME280;5972;42.134;24.718;2022-08-06T06:30:53;99298.75;;;38.29;29.28
11830;BME280;5972;42.134;24.718;2022-08-06T06:33:28;99296.91;;;37.12;31.37
11830;BME280;5972;42.134;24.718;2022-08-06T06:36:03;99299.69;;;36.39;32.84
11830;BME280;5972;42.134;24.718;2022-08-06T06:38:46;99303.34;;;35.93;34.01
11830;BME280;5972;42.134;24.718;2022-08-06T06:41:20;99287.75;;;35.45;35.11
11830;BME280;5972;42.134;24.718;2022-08-06T06:43:51;99292.50;;;35.20;35.88
11830;BME280;5972;42.134;24.718;2022-08-06T06:46:22;99285.84;;;35.12;36.04
11830;BME280;5972;42.134;24.718;2022-08-06T06:48:55;99288.47;;;35.04;36.32
11830;BME280;5972;42.134;24.718;2022-08-06T06:51:26;99289.16;;;35.27;36.05
11830;BME280;5972;42.134;24.718;2022-08-06T06:53:55;99285.03;;;35.28;36.35
11830;BME280;5972;42.134;24.718;2022-08-06T06:56:25;99286.31;;;35.33;35.86
11830;BME280;5972;42.134;24.718;2022-08-06T06:58:58;99272.53;;;35.18;36.57
11830;BME280;5972;42.134;24.718;2022-08-06T07:01:28;99278.66;;;35.28;36.81
11830;BME280;5972;42.134;24.718;2022-08-06T07:04:01;99280.47;;;35.25;36.82
11830;BME280;5972;42.134;24.718;2022-08-06T07:06:30;99273.25;;;35.35;36.16
11830;BME280;5972;42.134;24.718;2022-08-06T07:08:58;99265.72;;;35.02;35.95
11830;BME280;5972;42.134;24.718;2022-08-06T07:11:26;99271.94;;;34.73;37.59
11830;BME280;5972;42.134;24.718;2022-08-06T07:13:55;99263.25;;;34.77;37.55
11830;BME280;5972;42.134;24.718;2022-08-06T07:16:24;99266.00;;;34.99;37.24
11830;BME280;5972;42.134;24.718;2022-08-06T07:18:53;99266.91;;;35.24;37.42
11830;BME280;5972;42.134;24.718;2022-08-06T07:21:22;99261.03;;;35.27;37.19
11830;BME280;5972;42.134;24.718;2022-08-06T07:23:51;99242.88;;;35.23;36.53
11830;BME280;5972;42.134;24.718;2022-08-06T07:26:20;99268.72;;;35.16;37.33
11830;BME280;5972;42.134;24.718;2022-08-06T07:28:49;99265.66;;;35.14;36.71
11830;BME280;5972;42.134;24.718;2022-08-06T07:31:18;99254.75;;;34.99;37.40
11830;BME280;5972;42.134;24.718;2022-08-06T07:33:52;99259.53;;;35.21;37.16
11830;BME280;5972;42.134;24.718;2022-08-06T07:36:22;99258.75;;;35.15;36.71
11830;BME280;5972;42.134;24.718;2022-08-06T07:38:51;99259.31;;;35.02;37.13
11830;BME280;5972;42.134;24.718;2022-08-06T07:41:20;99262.63;;;35.00;36.59
11830;BME280;5972;42.134;24.718;2022-08-06T07:43:51;99258.91;;;34.81;37.70
11830;BME280;5972;42.134;24.718;2022-08-06T07:46:21;99260.38;;;34.93;38.00
11830;BME280;5972;42.134;24.718;2022-08-06T07:48:54;99253.34;;;35.22;37.46
11830;BME280;5972;42.134;24.718;2022-08-06T07:51:25;99244.50;;;35.54;36.13
11830;BME280;5972;42.134;24.718;2022-08-06T07:53:54;99227.31;;;35.57;36.10
11830;BME280;5972;42.134;24.718;2022-08-06T07:56:22;99231.38;;;35.62;35.97
11830;BME280;5972;42.134;24.718;2022-08-06T07:58:49;99233.63;;;35.74;35.98
11830;BME280;5972;42.134;24.718;2022-08-06T08:01:17;99237.09;;;35.86;35.21
11830;BME280;5972;42.134;24.718;2022-08-06T08:03:45;99229.09;;;35.60;35.82
11830;BME280;5972;42.134;24.718;2022-08-06T08:06:31;99235.97;;;35.70;35.67
11830;BME280;5972;42.134;24.718;2022-08-06T08:09:01;99233.91;;;35.71;35.33
11830;BME280;5972;42.134;24.718;2022-08-06T08:11:30;99223.97;;;35.59;35.52
11830;BME280;5972;42.134;24.718;2022-08-06T08:13:58;99213.63;;;35.78;34.99
11830;BME280;5972;42.134;24.718;2022-08-06T08:16:26;99234.31;;;36.16;34.63
11830;BME280;5972;42.134;24.718;2022-08-06T08:18:53;99234.94;;;36.33;33.89
11830;BME280;5972;42.134;24.718;2022-08-06T08:21:20;99231.75;;;36.42;33.71
11830;BME280;5972;42.134;24.718;2022-08-06T08:23:50;99230.00;;;36.39;33.97
11830;BME280;5972;42.134;24.718;2022-08-06T08:26:17;99227.19;;;36.63;33.19
11830;BME280;5972;42.134;24.718;2022-08-06T08:28:44;99231.22;;;36.68;33.61
11830;BME280;5972;42.134;24.718;2022-08-06T08:31:11;99225.59;;;36.14;33.64
11830;BME280;5972;42.134;24.718;2022-08-06T08:33:39;99224.25;;;35.61;34.85
11830;BME280;5972;42.134;24.718;2022-08-06T08:36:07;99215.69;;;35.77;34.51
11830;BME280;5972;42.134;24.718;2022-08-06T08:38:34;99221.06;;;36.35;34.04
11830;BME280;5972;42.134;24.718;2022-08-06T08:41:06;99219.88;;;36.25;33.48
11830;BME280;5972;42.134;24.718;2022-08-06T08:43:40;99215.91;;;36.39;33.37
11830;BME280;5972;42.134;24.718;2022-08-06T08:46:09;99199.78;;;36.58;31.93
11830;BME280;5972;42.134;24.718;2022-08-06T08:48:38;99207.78;;;36.30;32.24
11830;BME280;5972;42.134;24.718;2022-08-06T08:51:06;99196.56;;;36.49;32.36
11830;BME280;5972;42.134;24.718;2022-08-06T08:53:36;99205.72;;;36.79;30.99
11830;BME280;5972;42.134;24.718;2022-08-06T08:56:06;99171.75;;;36.47;31.00
11830;BME280;5972;42.134;24.718;2022-08-06T08:58:33;99199.59;;;36.32;30.67
11830;BME280;5972;42.134;24.718;2022-08-06T09:01:05;99199.91;;;36.47;31.04
11830;BME280;5972;42.134;24.718;2022-08-06T09:03:35;99180.81;;;36.83;30.53
11830;BME280;5972;42.134;24.718;2022-08-06T09:06:02;99195.34;;;37.12;29.69
11830;BME280;5972;42.134;24.718;2022-08-06T09:08:30;99188.28;;;37.18;29.93
11830;BME280;5972;42.134;24.718;2022-08-06T09:10:58;99190.06;;;37.21;30.56
11830;BME280;5972;42.134;24.718;2022-08-06T09:13:27;99146.19;;;37.01;29.84
11830;BME280;5972;42.134;24.718;2022-08-06T09:15:55;99183.88;;;37.23;30.21
11830;BME280;5972;42.134;24.718;2022-08-06T09:18:23;99157.75;;;37.35;29.95
11830;BME280;5972;42.134;24.718;2022-08-06T09:20:51;99175.56;;;37.62;29.45
11830;BME280;5972;42.134;24.718;2022-08-06T09:23:18;99173.22;;;37.66;29.63
11830;BME280;5972;42.134;24.718;2022-08-06T09:25:47;99170.31;;;37.85;29.61
11830;BME280;5972;42.134;24.718;2022-08-06T09:28:30;99171.06;;;37.85;28.85
11830;BME280;5972;42.134;24.718;2022-08-06T09:30:58;99154.41;;;37.69;29.32
11830;BME280;5972;42.134;24.718;2022-08-06T09:33:25;99165.81;;;38.08;28.51
11830;BME280;5972;42.134;24.718;2022-08-06T09:36:00;99166.00;;;37.84;29.10
11830;BME280;5972;42.134;24.718;2022-08-06T09:38:28;99171.47;;;38.08;28.73
11830;BME280;5972;42.134;24.718;2022-08-06T09:41:05;99170.63;;;38.26;28.58
11830;BME280;5972;42.134;24.718;2022-08-06T09:43:35;99159.53;;;38.55;27.99
11830;BME280;5972;42.134;24.718;2022-08-06T09:46:02;99144.28;;;38.18;28.54
11830;BME280;5972;42.134;24.718;2022-08-06T09:48:29;99164.09;;;37.41;29.15
11830;BME280;5972;42.134;24.718;2022-08-06T09:50:56;99158.59;;;37.49;29.11
11830;BME280;5972;42.134;24.718;2022-08-06T09:53:23;99147.06;;;37.15;29.22
11830;BME280;5972;42.134;24.718;2022-08-06T09:55:51;99159.88;;;37.16;29.12
11830;BME280;5972;42.134;24.718;2022-08-06T09:58:34;99155.19;;;37.37;29.40
11830;BME280;5972;42.134;24.718;2022-08-06T10:01:15;99150.75;;;37.23;29.49
11830;BME280;5972;42.134;24.718;2022-08-06T10:03:42;99153.47;;;36.78;29.93
11830;BME280;5972;42.134;24.718;2022-08-06T10:06:10;99136.25;;;36.39;30.56
11830;BME280;5972;42.134;24.718;2022-08-06T10:08:37;99157.66;;;36.47;30.81
11830;BME280;5972;42.134;24.718;2022-08-06T10:11:06;99146.38;;;36.72;30.01
11830;BME280;5972;42.134;24.718;2022-08-06T10:13:36;99148.56;;;36.97;30.16
11830;BME280;5972;42.134;24.718;2022-08-06T10:16:15;99148.34;;;36.77;30.48
11830;BME280;5972;42.134;24.718;2022-08-06T10:18:44;99159.75;;;36.41;30.49
11830;BME280;5972;42.134;24.718;2022-08-06T10:21:13;99149.50;;;36.19;30.99
11830;BME280;5972;42.134;24.718;2022-08-06T10:23:43;99140.56;;;35.91;31.30
11830;BME280;5972;42.134;24.718;2022-08-06T10:26:12;99114.28;;;35.83;31.37
11830;BME280;5972;42.134;24.718;2022-08-06T10:28:41;99138.75;;;36.18;31.08
11830;BME280;5972;42.134;24.718;2022-08-06T10:31:11;99125.91;;;36.84;29.88
11830;BME280;5972;42.134;24.718;2022-08-06T10:33:40;99127.38;;;37.28;29.96
11830;BME280;5972;42.134;24.718;2022-08-06T10:36:09;99129.63;;;37.30;29.95
11830;BME280;5972;42.134;24.718;2022-08-06T10:38:40;99120.13;;;36.95;29.91
11830;BME280;5972;42.134;24.718;2022-08-06T10:41:10;99121.31;;;37.69;29.76
11830;BME280;5972;42.134;24.718;2022-08-06T10:43:38;99111.81;;;38.25;28.83
11830;BME280;5972;42.134;24.718;2022-08-06T10:46:08;99115.59;;;38.67;28.01
11830;BME280;5972;42.134;24.718;2022-08-06T10:48:37;99106.78;;;39.04;27.40
11830;BME280;5972;42.134;24.718;2022-08-06T10:51:07;99088.16;;;39.09;27.23
11830;BME280;5972;42.134;24.718;2022-08-06T10:53:35;99102.31;;;39.30;27.73
11830;BME280;5972;42.134;24.718;2022-08-06T10:56:04;99107.66;;;39.54;27.27
11830;BME280;5972;42.134;24.718;2022-08-06T10:58:33;99100.31;;;39.59;26.60
11830;BME280;5972;42.134;24.718;2022-08-06T11:01:04;99117.41;;;39.45;27.40
11830;BME280;5972;42.134;24.718;2022-08-06T11:03:41;99093.44;;;39.75;26.76
11830;BME280;5972;42.134;24.718;2022-08-06T11:06:30;99081.91;;;39.94;26.72
11830;BME280;5972;42.134;24.718;2022-08-06T11:09:08;99097.06;;;40.04;26.98
11830;BME280;5972;42.134;24.718;2022-08-06T11:11:51;99086.06;;;40.21;26.08
11830;BME280;5972;42.134;24.718;2022-08-06T11:14:24;99082.00;;;39.80;26.67
11830;BME280;5972;42.134;24.718;2022-08-06T11:16:56;99074.09;;;40.15;26.65
11830;BME280;5972;42.134;24.718;2022-08-06T11:19:42;99077.97;;;39.47;27.43
11830;BME280;5972;42.134;24.718;2022-08-06T11:22:34;99076.34;;;39.60;27.08
11830;BME280;5972;42.134;24.718;2022-08-06T11:25:02;99078.97;;;38.95;27.83
11830;BME280;5972;42.134;24.718;2022-08-06T11:27:52;99067.06;;;38.63;27.71
11830;BME280;5972;42.134;24.718;2022-08-06T11:30:21;99063.66;;;38.31;28.32
11830;BME280;5972;42.134;24.718;2022-08-06T11:33:02;99086.59;;;37.42;29.51
11830;BME280;5972;42.134;24.718;2022-08-06T11:35:44;99082.41;;;36.98;30.01
11830;BME280;5972;42.134;24.718;2022-08-06T11:38:13;99076.00;;;37.30;29.89
11830;BME280;5972;42.134;24.718;2022-08-06T11:40:54;99080.03;;;37.34;29.65
11830;BME280;5972;42.134;24.718;2022-08-06T11:43:46;99083.84;;;37.37;30.77
11830;BME280;5972;42.134;24.718;2022-08-06T11:46:18;99077.97;;;37.22;30.94
11830;BME280;5972;42.134;24.718;2022-08-06T11:49:14;99081.00;;;37.24;30.45
11830;BME280;5972;42.134;24.718;2022-08-06T11:51:44;99058.41;;;37.24;30.52
11830;BME280;5972;42.134;24.718;2022-08-06T11:54:12;99080.31;;;37.50;30.73
11830;BME280;5972;42.134;24.718;2022-08-06T11:59:45;99076.75;;;37.62;30.00
11830;BME280;5972;42.134;24.718;2022-08-06T12:02:15;99080.91;;;37.74;29.57
11830;BME280;5972;42.134;24.718;2022-08-06T12:04:43;99076.47;;;37.92;29.27
11830;BME280;5972;42.134;24.718;2022-08-06T12:07:16;99071.47;;;37.85;29.59
11830;BME280;5972;42.134;24.718;2022-08-06T12:09:44;99066.25;;;37.76;29.38
11830;BME280;5972;42.134;24.718;2022-08-06T12:12:36;99063.22;;;37.61;29.40
11830;BME280;5972;42.134;24.718;2022-08-06T12:15:36;99060.00;;;37.51;30.08
11830;BME280;5972;42.134;24.718;2022-08-06T12:18:03;99063.09;;;37.79;29.94
11830;BME280;5972;42.134;24.718;2022-08-06T12:20:31;99052.22;;;37.97;29.50
11830;BME280;5972;42.134;24.718;2022-08-06T12:23:00;99053.16;;;38.05;29.05
11830;BME280;5972;42.134;24.718;2022-08-06T12:25:31;99041.19;;;37.72;29.40
11830;BME280;5972;42.134;24.718;2022-08-06T12:27:59;99036.66;;;37.37;29.74
11830;BME280;5972;42.134;24.718;2022-08-06T12:30:26;99038.34;;;37.59;29.76
11830;BME280;5972;42.134;24.718;2022-08-06T12:32:59;99034.97;;;37.87;29.74
11830;BME280;5972;42.134;24.718;2022-08-06T12:35:26;99024.22;;;37.72;29.50
11830;BME280;5972;42.134;24.718;2022-08-06T12:37:54;99025.34;;;37.37;29.96
11830;BME280;5972;42.134;24.718;2022-08-06T12:40:22;99024.81;;;37.07;30.21
11830;BME280;5972;42.134;24.718;2022-08-06T12:43:08;99012.09;;;36.69;30.32
11830;BME280;5972;42.134;24.718;2022-08-06T12:45:36;99015.16;;;36.71;30.91
11830;BME280;5972;42.134;24.718;2022-08-06T12:48:06;99011.75;;;36.91;30.54
11830;BME280;5972;42.134;24.718;2022-08-06T12:50:34;99007.63;;;36.92;30.48
11830;BME280;5972;42.134;24.718;2022-08-06T12:53:02;99000.16;;;36.94;30.87
11830;BME280;5972;42.134;24.718;2022-08-06T12:55:32;99005.41;;;37.03;30.62
11830;BME280;5972;42.134;24.718;2022-08-06T12:57:59;99008.38;;;37.11;30.63
11830;BME280;5972;42.134;24.718;2022-08-06T13:00:28;99003.78;;;37.08;31.15
11830;BME280;5972;42.134;24.718;2022-08-06T13:02:56;98996.97;;;36.85;31.65
11830;BME280;5972;42.134;24.718;2022-08-06T13:05:24;98997.13;;;36.92;31.84
11830;BME280;5972;42.134;24.718;2022-08-06T13:07:54;98995.78;;;37.12;30.55
11830;BME280;5972;42.134;24.718;2022-08-06T13:10:21;98990.50;;;37.35;29.77
11830;BME280;5972;42.134;24.718;2022-08-06T13:12:54;98983.13;;;37.32;29.84
11830;BME280;5972;42.134;24.718;2022-08-06T13:15:22;98986.78;;;37.14;29.80
11830;BME280;5972;42.134;24.718;2022-08-06T13:18:09;98983.44;;;36.83;29.88